Cherokee — 9HBC7 — position and weather

sailwx.info

Track history (hours):
 
Tides and Currents Weather Stations Pressure Air Temp Water Temp Dewpoint Dewpoint Depression Visibility Wind Speed Wind Dir Waves Ship Positions

Cherokee

Last reported at 2014-Dec-26 06:24 UTC. Time now 2015-Jan-26 02:23 UTC.
Position N 44°44' E 035°11'.
Warning: this ship's position is 30 days out of date.

Length 139 m; draft 2.8 m.

Type: Cargo ship. MMSI: 215059000.

Date/timePositionNaut miles runAvg speedWind from/ knotsBaromVisibWave heightAir tempDewpointWater temp
2014-Dec-26 06:24N 44°44' E 035°11'6 7.5
2014-Dec-26 05:33N 44°41' E 035°03'8 8.1
2014-Dec-26 04:33N 44°37' E 034°53'8 7.9
2014-Dec-26 03:33N 44°34' E 034°43'8 7.6
2014-Dec-26 02:33N 44°30' E 034°34'7 7.4
2014-Dec-26 01:33N 44°27' E 034°25'7 7.4
2014-Dec-26 00:33N 44°23' E 034°16'8 7.5
2014-Dec-25 23:32N 44°18' E 034°07'7 7.3
2014-Dec-25 22:32N 44°13' E 034°01'256 8.3
2014-Dec-24 15:33N 41°29' E 029°33'41 8.1
2014-Dec-24 10:34N 40°57' E 028°59'  
2014-Dec-20 16:20N 40°57' E 028°39'0 0.2
2014-Dec-20 14:28N 40°57' E 028°40'0 0.0
2014-Dec-19 02:19N 40°57' E 028°40'0 0.0
2014-Dec-18 16:28N 40°57' E 028°40'0 0.0
2014-Dec-18 03:18N 40°57' E 028°40'0 0.0
2014-Dec-18 02:07N 40°57' E 028°39'0 0.0
2014-Dec-18 01:03N 40°57' E 028°39'0 0.0
2014-Dec-17 23:25N 40°57' E 028°39'0 0.0
2014-Dec-17 21:23N 40°57' E 028°39'0 0.0
2014-Dec-17 20:14N 40°57' E 028°39'0 0.0
2014-Dec-17 18:06N 40°57' E 028°39'0 0.0
2014-Dec-17 17:03N 40°57' E 028°39'0 0.0
2014-Dec-17 05:11N 40°57' E 028°39'0 0.0
2014-Dec-17 03:15N 40°57' E 028°39'0 0.0
2014-Dec-17 02:31N 40°57' E 028°39'4 0.6
2014-Dec-16 19:22N 40°55' E 028°44'6 7.4
2014-Dec-16 18:33N 40°56' E 028°52'4 4.2
2014-Dec-16 17:33N 40°59' E 028°56'0 0.0
2014-Dec-16 16:33N 40°59' E 028°56'0 0.0
2014-Dec-16 15:33N 40°59' E 028°56'0 0.1
2014-Dec-16 14:33N 40°59' E 028°56'0 0.1
2014-Dec-16 13:33N 40°59' E 028°56'2 1.7
2014-Dec-16 12:34N 40°59' E 028°58'  
Track history (hours):
 
Tides and Currents Weather Stations Pressure Air Temp Water Temp Dewpoint Dewpoint Depression Visibility Wind Speed Wind Dir Waves Ship Positions

Cherokee

Last reported at 2014-Dec-26 06:24 UTC. Time now 2015-Jan-26 02:23 UTC.
Position N 44°44' E 035°11'.
Warning: this ship's position is 30 days out of date.

Length 139 m; draft 2.8 m.

Type: Cargo ship. MMSI: 215059000.

Date/timePositionNaut miles runAvg speedWind from/ knotsBaromVisibWave heightAir tempDewpointWater temp
2014-Dec-26 06:24N 44°44' E 035°11'6 7.5
2014-Dec-26 05:33N 44°41' E 035°03'8 8.1
2014-Dec-26 04:33N 44°37' E 034°53'8 7.9
2014-Dec-26 03:33N 44°34' E 034°43'8 7.6
2014-Dec-26 02:33N 44°30' E 034°34'7 7.4
2014-Dec-26 01:33N 44°27' E 034°25'7 7.4
2014-Dec-26 00:33N 44°23' E 034°16'8 7.5
2014-Dec-25 23:32N 44°18' E 034°07'7 7.3
2014-Dec-25 22:32N 44°13' E 034°01'256 8.3
2014-Dec-24 15:33N 41°29' E 029°33'41 8.1
2014-Dec-24 10:34N 40°57' E 028°59'  
2014-Dec-20 16:20N 40°57' E 028°39'0 0.2
2014-Dec-20 14:28N 40°57' E 028°40'0 0.0
2014-Dec-19 02:19N 40°57' E 028°40'0 0.0
2014-Dec-18 16:28N 40°57' E 028°40'0 0.0
2014-Dec-18 03:18N 40°57' E 028°40'0 0.0
2014-Dec-18 02:07N 40°57' E 028°39'0 0.0
2014-Dec-18 01:03N 40°57' E 028°39'0 0.0
2014-Dec-17 23:25N 40°57' E 028°39'0 0.0
2014-Dec-17 21:23N 40°57' E 028°39'0 0.0
2014-Dec-17 20:14N 40°57' E 028°39'0 0.0
2014-Dec-17 18:06N 40°57' E 028°39'0 0.0
2014-Dec-17 17:03N 40°57' E 028°39'0 0.0
2014-Dec-17 05:11N 40°57' E 028°39'0 0.0
2014-Dec-17 03:15N 40°57' E 028°39'0 0.0
2014-Dec-17 02:31N 40°57' E 028°39'4 0.6
2014-Dec-16 19:22N 40°55' E 028°44'6 7.4
2014-Dec-16 18:33N 40°56' E 028°52'4 4.2
2014-Dec-16 17:33N 40°59' E 028°56'0 0.0
2014-Dec-16 16:33N 40°59' E 028°56'0 0.0
2014-Dec-16 15:33N 40°59' E 028°56'0 0.1
2014-Dec-16 14:33N 40°59' E 028°56'0 0.1
2014-Dec-16 13:33N 40°59' E 028°56'2 1.7
2014-Dec-16 12:34N 40°59' E 028°58'  

Dump ship's entire track history